createdAt,value
2017-05-31T00:00:10.546Z,58.5
2017-05-31T00:00:36.691Z,58.6
2017-05-31T00:01:02.825Z,58.98
2017-05-31T00:01:29.041Z,59.17
2017-05-31T00:01:55.192Z,58.5
2017-05-31T00:02:21.352Z,58.5
2017-05-31T00:02:47.496Z,58.7
2017-05-31T00:03:13.643Z,58.4
2017-05-31T00:03:39.776Z,58.7
2017-05-31T00:04:05.914Z,58.79
2017-05-31T00:04:32.067Z,58.5
2017-05-31T00:04:58.270Z,58.5
2017-05-31T00:05:24.404Z,58.5
2017-05-31T00:05:50.558Z,58.5
2017-05-31T00:06:16.701Z,58.6
2017-05-31T00:06:42.835Z,58.79
2017-05-31T00:07:08.989Z,58.98
2017-05-31T00:07:35.128Z,59.17
2017-05-31T00:08:01.259Z,58.98
2017-05-31T00:08:27.475Z,59.08
2017-05-31T00:08:53.661Z,58.98
2017-05-31T00:09:19.862Z,58.79
2017-05-31T00:09:46.004Z,58.7
2017-05-31T00:10:12.142Z,58.6
2017-05-31T00:10:38.291Z,58.7
2017-05-31T00:11:04.436Z,58.98
2017-05-31T00:11:30.570Z,58.89
2017-05-31T00:11:56.714Z,59.37
2017-05-31T00:12:22.864Z,59.08
2017-05-31T00:12:49.032Z,58.89
2017-05-31T00:13:15.206Z,58.5
2017-05-31T00:13:41.356Z,58.7
2017-05-31T00:14:07.490Z,58.98
2017-05-31T00:14:33.629Z,58.5
2017-05-31T00:14:59.780Z,58.89
2017-05-31T00:15:25.915Z,59.08
2017-05-31T00:15:52.065Z,59.63
2017-05-31T00:16:18.194Z,59.63
2017-05-31T00:16:44.335Z,59.63
2017-05-31T00:17:10.485Z,59.34
2017-05-31T00:17:36.618Z,59.92
2017-05-31T00:18:02.789Z,59.82
2017-05-31T00:18:28.941Z,59.53
2017-05-31T00:18:55.075Z,59.44
2017-05-31T00:19:21.205Z,60.01
2017-05-31T00:19:47.359Z,59.82
2017-05-31T00:20:13.535Z,60.21
2017-05-31T00:20:39.699Z,60.11
2017-05-31T00:21:05.889Z,60.11
2017-05-31T00:21:32.025Z,60.21
2017-05-31T00:21:58.176Z,60.11
2017-05-31T00:22:24.313Z,60.49
2017-05-31T00:22:50.481Z,60.21
2017-05-31T00:23:16.670Z,60.59
2017-05-31T00:23:42.851Z,60.21
2017-05-31T00:24:08.982Z,59.82
2017-05-31T00:24:35.134Z,60.59
2017-05-31T00:25:01.281Z,60.3
2017-05-31T00:25:27.448Z,60.69
2017-05-31T00:25:53.598Z,60.69
2017-05-31T00:26:19.746Z,60.39
2017-05-31T00:26:45.881Z,60.97
2017-05-31T00:27:12.022Z,60.97
2017-05-31T00:27:38.156Z,61.04
2017-05-31T00:28:04.308Z,60.75
2017-05-31T00:28:30.451Z,61.36
2017-05-31T00:28:56.583Z,61.36
2017-05-31T00:29:22.729Z,61.36
2017-05-31T00:29:48.882Z,60.97
2017-05-31T00:30:15.014Z,61.36
2017-05-31T00:30:41.189Z,61.52
2017-05-31T00:31:07.374Z,61.46
2017-05-31T00:31:33.503Z,60.97
2017-05-31T00:31:59.677Z,60.97
2017-05-31T00:32:25.820Z,60.94
2017-05-31T00:32:51.965Z,60.97
2017-05-31T00:33:18.114Z,61.26
2017-05-31T00:33:44.275Z,61.46
2017-05-31T00:34:10.417Z,61.52
2017-05-31T00:34:36.568Z,60.94
2017-05-31T00:35:02.701Z,61.33
2017-05-31T00:35:28.843Z,61.33
2017-05-31T00:35:55.028Z,61.65
2017-05-31T00:36:21.166Z,61.84
2017-05-31T00:36:47.296Z,61.16
2017-05-31T00:37:13.517Z,61.36
2017-05-31T00:37:39.694Z,61.16
2017-05-31T00:38:05.840Z,61.46
2017-05-31T00:38:31.974Z,61.33
2017-05-31T00:38:58.114Z,61.61
2017-05-31T00:39:24.263Z,61.14
2017-05-31T00:39:50.400Z,61.52
2017-05-31T00:40:16.569Z,62.38
2017-05-31T00:40:42.722Z,62.1
2017-05-31T00:41:08.866Z,61.81
2017-05-31T00:41:34.996Z,61.61
2017-05-31T00:42:01.148Z,61.33
2017-05-31T00:42:27.324Z,61.91
2017-05-31T00:42:53.491Z,62.1
2017-05-31T00:43:19.636Z,62.58
2017-05-31T00:43:45.770Z,62.1
2017-05-31T00:44:11.923Z,62.38
2017-05-31T00:44:38.098Z,62.58
2017-05-31T00:45:04.295Z,62.29
2017-05-31T00:45:30.474Z,62.96
2017-05-31T00:45:56.618Z,62.1
2017-05-31T00:46:22.812Z,62.1
2017-05-31T00:46:48.907Z,62.96
2017-05-31T00:47:15.057Z,62.77
2017-05-31T00:47:41.218Z,62.68
2017-05-31T00:48:07.428Z,62.48
2017-05-31T00:48:33.579Z,62.38
2017-05-31T00:48:59.713Z,62.29
2017-05-31T00:49:25.885Z,62.19
2017-05-31T00:49:52.033Z,62.1
2017-05-31T00:50:18.170Z,62.29
2017-05-31T00:50:44.304Z,62.38
2017-05-31T00:51:10.464Z,62.38
2017-05-31T00:51:36.606Z,62.87
2017-05-31T00:52:02.743Z,62.48
2017-05-31T00:52:28.925Z,62.87
2017-05-31T00:52:55.068Z,62.48
2017-05-31T00:53:21.202Z,62.29
2017-05-31T00:53:47.347Z,62.29
2017-05-31T00:54:13.496Z,62.68
2017-05-31T00:54:39.631Z,62.87
2017-05-31T00:55:05.772Z,62.68
2017-05-31T00:55:31.906Z,62.58
2017-05-31T00:55:58.088Z,62.48
2017-05-31T00:56:24.232Z,62.48
2017-05-31T00:56:50.366Z,62.48
2017-05-31T00:57:16.512Z,62.96
2017-05-31T00:57:42.673Z,63.64
2017-05-31T00:58:08.838Z,63.06
2017-05-31T00:58:34.981Z,63.15
2017-05-31T00:59:01.132Z,62.96
2017-05-31T00:59:27.310Z,63.25
2017-05-31T00:59:53.469Z,62.58
2017-05-31T01:00:19.611Z,62.87
2017-05-31T01:00:45.787Z,62.68
2017-05-31T01:01:11.972Z,62.48
2017-05-31T01:01:38.099Z,63.06
2017-05-31T01:02:04.241Z,62.58
2017-05-31T01:02:30.392Z,62.19
2017-05-31T01:02:56.526Z,62.29
2017-05-31T01:03:22.667Z,62.68
2017-05-31T01:03:48.852Z,63.15
2017-05-31T01:04:14.990Z,62.87
2017-05-31T01:04:41.125Z,62.48
2017-05-31T01:05:07.288Z,62.38
2017-05-31T01:05:33.429Z,62.96
2017-05-31T01:05:59.573Z,62.96
2017-05-31T01:06:25.706Z,62.68
2017-05-31T01:06:51.846Z,62.77
2017-05-31T01:07:17.996Z,62.1
2017-05-31T01:07:44.137Z,62.38
2017-05-31T01:08:10.266Z,62.29
2017-05-31T01:08:36.456Z,62.1
2017-05-31T01:09:02.634Z,62.58
2017-05-31T01:09:28.801Z,62.48
2017-05-31T01:09:54.952Z,62.48
2017-05-31T01:10:21.096Z,62.19
2017-05-31T01:10:47.228Z,62.29
2017-05-31T01:11:13.370Z,62.96
2017-05-31T01:11:39.520Z,62.77
2017-05-31T01:12:05.650Z,62.19
2017-05-31T01:12:31.855Z,62.38
2017-05-31T01:12:58.040Z,62.48
2017-05-31T01:13:24.208Z,63.15
2017-05-31T01:13:50.347Z,63.25
2017-05-31T01:14:16.499Z,62.96
2017-05-31T01:14:42.669Z,62.96
2017-05-31T01:15:08.839Z,63.06
2017-05-31T01:15:34.993Z,63.35
2017-05-31T01:16:01.133Z,63.06
2017-05-31T01:16:27.300Z,62.38
2017-05-31T01:16:53.448Z,62.96
2017-05-31T01:17:19.587Z,63.35
2017-05-31T01:17:45.738Z,62.96
2017-05-31T01:18:11.872Z,62.96
2017-05-31T01:18:38.005Z,62.29
2017-05-31T01:19:04.158Z,62.38
2017-05-31T01:19:30.352Z,62.58
2017-05-31T01:19:56.485Z,62.77
2017-05-31T01:20:22.670Z,62.87
2017-05-31T01:20:48.813Z,62.77
2017-05-31T01:21:14.983Z,62.77
2017-05-31T01:21:41.159Z,62.77
2017-05-31T01:22:07.345Z,62.77
2017-05-31T01:22:33.515Z,62.48
2017-05-31T01:22:59.658Z,62.87
2017-05-31T01:23:25.820Z,62.38
2017-05-31T01:23:51.970Z,63.06
2017-05-31T01:24:18.115Z,62.96
2017-05-31T01:24:44.279Z,62.96
2017-05-31T01:25:10.459Z,62.96
2017-05-31T01:25:36.612Z,63.02
2017-05-31T01:26:02.740Z,63.32
2017-05-31T01:26:28.885Z,63.22
2017-05-31T01:26:55.067Z,63.41
2017-05-31T01:27:21.198Z,63.22
2017-05-31T01:27:47.338Z,63.12
2017-05-31T01:28:13.477Z,62.93
2017-05-31T01:28:39.622Z,63.22
2017-05-31T01:29:05.771Z,63.51
2017-05-31T01:29:31.923Z,63.79
2017-05-31T01:29:58.041Z,63.22
2017-05-31T01:30:24.190Z,63.7
2017-05-31T01:30:50.323Z,63.79
2017-05-31T01:31:16.493Z,63.99
2017-05-31T01:31:42.644Z,64.18
2017-05-31T01:32:08.782Z,63.99
2017-05-31T01:32:34.981Z,63.41
2017-05-31T01:33:01.133Z,63.79
2017-05-31T01:33:27.278Z,63.89
2017-05-31T01:33:53.442Z,63.99
2017-05-31T01:34:19.602Z,63.6
2017-05-31T01:34:45.743Z,64.09
2017-05-31T01:35:11.901Z,63.99
2017-05-31T01:35:38.083Z,64.37
2017-05-31T01:36:04.230Z,63.99
2017-05-31T01:36:30.361Z,64.28
2017-05-31T01:36:56.535Z,63.99
2017-05-31T01:37:22.721Z,64.09
2017-05-31T01:37:48.857Z,63.99
2017-05-31T01:38:14.994Z,63.99
2017-05-31T01:38:41.181Z,63.99
2017-05-31T01:39:07.316Z,63.99
2017-05-31T01:39:33.466Z,63.79
2017-05-31T01:39:59.648Z,63.89
2017-05-31T01:40:25.790Z,64.28
2017-05-31T01:40:51.937Z,64.28
2017-05-31T01:41:18.073Z,64.09
2017-05-31T01:41:44.213Z,64.18
2017-05-31T01:42:10.402Z,65.05
2017-05-31T01:42:36.537Z,64.76
2017-05-31T01:43:02.669Z,64.85
2017-05-31T01:43:28.824Z,64.18
2017-05-31T01:43:54.968Z,64.28
2017-05-31T01:44:21.136Z,64.37
2017-05-31T01:44:47.286Z,64.76
2017-05-31T01:45:13.419Z,64.85
2017-05-31T01:45:39.570Z,63.99
2017-05-31T01:46:05.705Z,64.85
2017-05-31T01:46:31.838Z,64.56
2017-05-31T01:46:57.992Z,64.66
2017-05-31T01:47:24.133Z,64.18
2017-05-31T01:47:50.332Z,63.89
2017-05-31T01:48:16.482Z,64.28
2017-05-31T01:48:42.663Z,64.66
2017-05-31T01:49:08.796Z,64.18
2017-05-31T01:49:34.976Z,63.89
2017-05-31T01:50:01.162Z,64.95
2017-05-31T01:50:27.333Z,65.53
2017-05-31T01:50:53.509Z,64.56
2017-05-31T01:51:19.673Z,64.47
2017-05-31T01:51:45.821Z,63.89
2017-05-31T01:52:11.965Z,64.28
2017-05-31T01:52:38.099Z,63.99
2017-05-31T01:53:04.278Z,64.47
2017-05-31T01:53:30.428Z,64.37
2017-05-31T01:53:56.558Z,64.66
2017-05-31T01:54:22.701Z,64.85
2017-05-31T01:54:48.851Z,64.28
2017-05-31T01:55:14.983Z,64.28
2017-05-31T01:55:41.121Z,64.85
2017-05-31T01:56:07.262Z,64.66
2017-05-31T01:56:33.403Z,64.95
2017-05-31T01:56:59.553Z,63.99
2017-05-31T01:57:25.714Z,64.66
2017-05-31T01:57:51.860Z,64.47
2017-05-31T01:58:18.010Z,64.09
2017-05-31T01:58:44.145Z,63.79
2017-05-31T01:59:10.283Z,64.18
2017-05-31T01:59:36.471Z,64.28
2017-05-31T02:00:02.607Z,64.28
2017-05-31T02:00:28.738Z,63.89
2017-05-31T02:00:54.891Z,64.37
2017-05-31T02:01:21.031Z,64.09
2017-05-31T02:01:47.179Z,64.56
2017-05-31T02:02:13.313Z,64.76
2017-05-31T02:02:39.455Z,64.18
2017-05-31T02:03:05.673Z,64.66
2017-05-31T02:03:31.846Z,64.95
2017-05-31T02:03:57.979Z,64.18
2017-05-31T02:04:24.163Z,64.28
2017-05-31T02:04:50.308Z,64.47
2017-05-31T02:05:16.435Z,64.47
2017-05-31T02:05:42.584Z,64.37
2017-05-31T02:06:08.725Z,64.47
2017-05-31T02:06:34.855Z,64.76
2017-05-31T02:07:01.004Z,64.85
2017-05-31T02:07:27.185Z,65.53
2017-05-31T02:07:53.357Z,65.14
2017-05-31T02:08:19.500Z,65.05
2017-05-31T02:08:45.635Z,64.85
2017-05-31T02:09:11.822Z,64.18
2017-05-31T02:09:37.965Z,65.14
2017-05-31T02:10:04.097Z,64.56
2017-05-31T02:10:30.276Z,64.95
2017-05-31T02:10:56.426Z,64.95
2017-05-31T02:11:22.555Z,64.43
2017-05-31T02:11:48.696Z,65.49
2017-05-31T02:12:14.846Z,65.11
2017-05-31T02:12:40.977Z,64.92
2017-05-31T02:13:07.126Z,65.59
2017-05-31T02:13:33.292Z,65.69
2017-05-31T02:13:59.469Z,65.97
2017-05-31T02:14:25.655Z,65.78
2017-05-31T02:14:51.783Z,65.69
2017-05-31T02:15:17.924Z,65.78
2017-05-31T02:15:44.073Z,65.78
2017-05-31T02:16:10.207Z,65.69
2017-05-31T02:16:36.348Z,65.88
2017-05-31T02:17:02.533Z,66.26
2017-05-31T02:17:28.672Z,66.07
2017-05-31T02:17:54.807Z,66.07
2017-05-31T02:18:20.993Z,65.69
2017-05-31T02:18:47.134Z,66.07
2017-05-31T02:19:13.266Z,65.88
2017-05-31T02:19:39.415Z,65.88
2017-05-31T02:20:05.562Z,65.97
2017-05-31T02:20:31.759Z,65.69
2017-05-31T02:20:57.906Z,65.88
2017-05-31T02:21:24.055Z,65.97
2017-05-31T02:21:50.186Z,65.88
2017-05-31T02:22:16.358Z,66.46
2017-05-31T02:22:42.543Z,66.16
2017-05-31T02:23:08.676Z,66.07
2017-05-31T02:23:35.807Z,66.07
2017-05-31T02:24:01.948Z,66.16
2017-05-31T02:24:28.129Z,66.46
2017-05-31T02:24:54.312Z,66.55
2017-05-31T02:25:20.507Z,66.36
2017-05-31T02:25:46.651Z,66.84
2017-05-31T02:26:12.799Z,66.74
2017-05-31T02:26:38.969Z,66.26
2017-05-31T02:27:05.109Z,66.46
2017-05-31T02:27:31.295Z,66.55
2017-05-31T02:27:57.433Z,66.55
2017-05-31T02:28:23.602Z,66.93
2017-05-31T02:28:49.792Z,66.93
2017-05-31T02:29:15.930Z,66.84
2017-05-31T02:29:42.112Z,66.46
2017-05-31T02:30:08.598Z,66.55
2017-05-31T02:30:34.739Z,66.36
2017-05-31T02:31:00.923Z,66.46
2017-05-31T02:31:27.071Z,66.74
2017-05-31T02:31:53.228Z,66.16
2017-05-31T02:32:19.381Z,66.55
2017-05-31T02:32:45.593Z,66.16
2017-05-31T02:33:11.764Z,66.16
2017-05-31T02:33:37.945Z,66.46
2017-05-31T02:34:04.124Z,66.36
2017-05-31T02:34:30.260Z,66.74
2017-05-31T02:34:56.473Z,66.55
2017-05-31T02:35:22.608Z,66.93
2017-05-31T02:35:48.761Z,66.26
2017-05-31T02:36:14.902Z,65.97
2017-05-31T02:36:41.035Z,66.93
2017-05-31T02:37:07.219Z,66.46
2017-05-31T02:37:33.360Z,66.46
2017-05-31T02:37:59.494Z,66.55
2017-05-31T02:38:25.639Z,66.36
2017-05-31T02:38:51.824Z,66.84
2017-05-31T02:39:17.956Z,66.74
2017-05-31T02:39:44.129Z,66.74
2017-05-31T02:40:10.314Z,66.74
2017-05-31T02:40:36.448Z,66.84
2017-05-31T02:41:02.630Z,66.55
2017-05-31T02:41:28.762Z,66.64
2017-05-31T02:41:54.908Z,66.74
2017-05-31T02:42:21.094Z,66.64
2017-05-31T02:42:47.258Z,66.55
2017-05-31T02:43:13.469Z,66.64
2017-05-31T02:43:39.624Z,66.64
2017-05-31T02:44:05.787Z,66.64
2017-05-31T02:44:31.925Z,66.42
2017-05-31T02:44:58.074Z,66.46
2017-05-31T02:45:24.209Z,66.61
2017-05-31T02:45:50.346Z,66.93
2017-05-31T02:46:16.494Z,66.93
2017-05-31T02:46:42.702Z,66.74
2017-05-31T02:47:08.850Z,66.55
2017-05-31T02:47:34.983Z,66.74
2017-05-31T02:48:01.158Z,66.64
2017-05-31T02:48:27.381Z,67.03
2017-05-31T02:48:53.548Z,67.22
2017-05-31T02:49:19.681Z,66.93
2017-05-31T02:49:45.866Z,67.13
2017-05-31T02:50:12.006Z,67.13
2017-05-31T02:50:38.175Z,67.03
2017-05-31T02:51:04.324Z,67.13
2017-05-31T02:51:30.505Z,67.22
2017-05-31T02:51:56.681Z,67.32
2017-05-31T02:52:22.817Z,66.93
2017-05-31T02:52:48.951Z,67.19
2017-05-31T02:53:15.105Z,67.29
2017-05-31T02:53:41.245Z,67.09
2017-05-31T02:54:07.379Z,67.19
2017-05-31T02:54:33.526Z,67.51
2017-05-31T02:54:59.705Z,67.51
2017-05-31T02:55:25.874Z,67.19
2017-05-31T02:55:52.021Z,67.32
2017-05-31T02:56:18.172Z,66.93
2017-05-31T02:56:44.303Z,67.22
2017-05-31T02:57:10.444Z,67.22
2017-05-31T02:57:36.581Z,66.36
2017-05-31T02:58:02.730Z,66.46
2017-05-31T02:58:28.874Z,66.64
2017-05-31T02:58:55.030Z,66.64
2017-05-31T02:59:21.178Z,66.84
2017-05-31T02:59:47.328Z,67.32
2017-05-31T03:00:13.494Z,67.13
2017-05-31T03:00:39.634Z,66.93
2017-05-31T03:01:05.784Z,67.03
2017-05-31T03:01:31.950Z,67.13
2017-05-31T03:01:58.156Z,67.22
2017-05-31T03:02:24.309Z,67.22
2017-05-31T03:02:50.481Z,67.41
2017-05-31T03:03:16.616Z,67.13
2017-05-31T03:03:42.805Z,67.41
2017-05-31T03:04:08.980Z,66.55
2017-05-31T03:04:35.114Z,67.22
2017-05-31T03:05:01.263Z,66.93
2017-05-31T03:05:27.441Z,67.41
2017-05-31T03:05:53.575Z,67.41
2017-05-31T03:06:19.721Z,67.41
2017-05-31T03:06:45.870Z,66.93
2017-05-31T03:07:12.000Z,66.93
2017-05-31T03:07:38.141Z,67.13
2017-05-31T03:08:04.290Z,67.13
2017-05-31T03:08:30.458Z,67.22
2017-05-31T03:08:56.608Z,67.32
2017-05-31T03:09:22.742Z,67.03
2017-05-31T03:09:48.891Z,67.13
2017-05-31T03:10:15.040Z,66.55
2017-05-31T03:10:41.172Z,67.32
2017-05-31T03:11:07.317Z,67.13
2017-05-31T03:11:33.504Z,67.51
2017-05-31T03:11:59.638Z,67.41
2017-05-31T03:12:25.775Z,67.22
2017-05-31T03:12:51.959Z,67.03
2017-05-31T03:13:18.096Z,67.22
2017-05-31T03:13:44.229Z,67.22
2017-05-31T03:14:10.377Z,67.03
2017-05-31T03:14:36.556Z,67.22
2017-05-31T03:15:02.708Z,67.22
2017-05-31T03:15:28.875Z,67.32
2017-05-31T03:15:55.013Z,67.22
2017-05-31T03:16:21.164Z,67.22
2017-05-31T03:16:47.303Z,67.03
2017-05-31T03:17:13.433Z,67.19
2017-05-31T03:17:39.590Z,67.09
2017-05-31T03:18:05.732Z,68.05
2017-05-31T03:18:31.898Z,68.05
2017-05-31T03:18:58.081Z,67.57
2017-05-31T03:19:24.260Z,67.86
2017-05-31T03:19:50.401Z,67.67
2017-05-31T03:20:16.538Z,67.67
2017-05-31T03:20:42.672Z,67.76
2017-05-31T03:21:08.826Z,67.67
2017-05-31T03:21:34.964Z,67.76
2017-05-31T03:22:01.096Z,67.38
2017-05-31T03:22:27.293Z,67.47
2017-05-31T03:22:53.461Z,67.67
2017-05-31T03:23:19.596Z,67.67
2017-05-31T03:23:45.741Z,67.96
2017-05-31T03:24:11.927Z,67.8
2017-05-31T03:24:38.056Z,67.7
2017-05-31T03:25:04.196Z,67.13
2017-05-31T03:25:30.368Z,67.09
2017-05-31T03:25:56.517Z,67.32
2017-05-31T03:26:22.663Z,66.93
2017-05-31T03:26:48.829Z,67.09
2017-05-31T03:27:15.010Z,67.8
2017-05-31T03:27:41.157Z,67.51
2017-05-31T03:28:07.325Z,68.08
2017-05-31T03:28:33.462Z,67.19
2017-05-31T03:28:59.683Z,67.13
2017-05-31T03:29:25.853Z,67.41
2017-05-31T03:29:51.995Z,67.22
2017-05-31T03:30:18.147Z,67.32
2017-05-31T03:30:44.317Z,66.93
2017-05-31T03:31:10.502Z,67.22
2017-05-31T03:31:36.629Z,67.19
2017-05-31T03:32:02.772Z,67.13
2017-05-31T03:32:28.958Z,67.9
2017-05-31T03:32:55.129Z,67.13
2017-05-31T03:33:21.271Z,67.03
2017-05-31T03:33:47.457Z,67.19
2017-05-31T03:34:13.668Z,67.47
2017-05-31T03:34:39.805Z,67.38
2017-05-31T03:35:05.962Z,67.96
2017-05-31T03:35:32.103Z,68.05
2017-05-31T03:35:58.234Z,67.67
2017-05-31T03:36:24.383Z,67.22
2017-05-31T03:36:50.517Z,67.19
2017-05-31T03:37:16.742Z,67.76
2017-05-31T03:37:42.879Z,67.57
2017-05-31T03:38:09.013Z,67.76
2017-05-31T03:38:35.170Z,67.57
2017-05-31T03:39:01.306Z,67.67
2017-05-31T03:39:27.442Z,67.7
2017-05-31T03:39:53.592Z,67.7
2017-05-31T03:40:19.772Z,67.7
2017-05-31T03:40:45.905Z,67.7
2017-05-31T03:41:12.088Z,67.22
2017-05-31T03:41:38.239Z,67.19
2017-05-31T03:42:04.374Z,67.47
2017-05-31T03:42:30.514Z,67.61
2017-05-31T03:42:56.682Z,67.7
2017-05-31T03:43:22.830Z,67.9
2017-05-31T03:43:48.973Z,67.57
2017-05-31T03:44:15.108Z,68.08
2017-05-31T03:44:41.255Z,68.05
2017-05-31T03:45:07.441Z,67.61
2017-05-31T03:45:33.602Z,67.22
2017-05-31T03:45:59.747Z,66.84
2017-05-31T03:46:25.897Z,66.74
2017-05-31T03:46:52.030Z,67.41
2017-05-31T03:47:18.168Z,67.22
2017-05-31T03:47:44.317Z,67.7
2017-05-31T03:48:10.454Z,67.7
2017-05-31T03:48:36.656Z,67.61
2017-05-31T03:49:02.880Z,68.08
2017-05-31T03:49:29.020Z,67.7
2017-05-31T03:49:55.153Z,67.86
2017-05-31T03:50:21.341Z,67.47
2017-05-31T03:50:47.485Z,67.76
2017-05-31T03:51:13.652Z,67.67
2017-05-31T03:51:39.798Z,67.86
2017-05-31T03:52:05.949Z,68.05
2017-05-31T03:52:32.081Z,68.44
2017-05-31T03:52:58.223Z,68.91
2017-05-31T03:53:24.363Z,68.73
2017-05-31T03:53:50.509Z,68.15
2017-05-31T03:54:16.653Z,68.34
2017-05-31T03:54:42.820Z,67.96
2017-05-31T03:55:08.965Z,68.05
2017-05-31T03:55:35.151Z,67.57
2017-05-31T03:56:01.318Z,67.96
2017-05-31T03:56:27.496Z,67.76
2017-05-31T03:56:53.647Z,68.15
2017-05-31T03:57:19.815Z,68.53
2017-05-31T03:57:45.988Z,67.67
2017-05-31T03:58:12.138Z,67.41
2017-05-31T03:58:38.307Z,67.67
2017-05-31T03:59:04.466Z,67.7
2017-05-31T03:59:30.593Z,67.7
2017-05-31T03:59:56.770Z,67.9
2017-05-31T04:00:22.954Z,67.9
2017-05-31T04:00:49.090Z,67.8
2017-05-31T04:01:15.233Z,67.41
2017-05-31T04:01:41.418Z,67.41
2017-05-31T04:02:07.554Z,67.22
2017-05-31T04:02:33.684Z,67.32
2017-05-31T04:02:59.869Z,67.99
2017-05-31T04:03:26.047Z,67.8
2017-05-31T04:03:52.183Z,67.41
2017-05-31T04:04:18.335Z,66.84
2017-05-31T04:04:44.472Z,67.22
2017-05-31T04:05:10.622Z,66.93
2017-05-31T04:05:36.761Z,67.61
2017-05-31T04:06:02.895Z,67.19
2017-05-31T04:06:29.047Z,67.03
2017-05-31T04:06:55.188Z,67.13
2017-05-31T04:07:21.388Z,68.08
2017-05-31T04:07:47.539Z,67.67
2017-05-31T04:08:13.684Z,67.61
2017-05-31T04:08:39.819Z,68.05
2017-05-31T04:09:05.965Z,67.22
2017-05-31T04:09:32.152Z,68.08
2017-05-31T04:09:58.321Z,67.67
2017-05-31T04:10:24.464Z,67.47
2017-05-31T04:10:50.595Z,67.67
2017-05-31T04:11:16.777Z,67.76
2017-05-31T04:11:42.956Z,67.67
2017-05-31T04:12:09.089Z,67.61
2017-05-31T04:12:35.276Z,67.86
2017-05-31T04:13:01.414Z,67.76
2017-05-31T04:13:27.580Z,67.67
2017-05-31T04:13:53.820Z,67.67
2017-05-31T04:14:19.970Z,67.67
2017-05-31T04:14:46.137Z,67.8
2017-05-31T04:15:12.312Z,68.08
2017-05-31T04:15:38.483Z,67.51
2017-05-31T04:16:04.628Z,67.61
2017-05-31T04:16:30.824Z,68.08
2017-05-31T04:16:56.955Z,67.9
2017-05-31T04:17:23.099Z,67.86
2017-05-31T04:17:49.282Z,67.86
2017-05-31T04:18:15.416Z,68.05
2017-05-31T04:18:41.556Z,67.76
2017-05-31T04:19:07.743Z,67.67
2017-05-31T04:19:33.880Z,67.76
2017-05-31T04:20:00.014Z,67.38
2017-05-31T04:20:26.167Z,67.57
2017-05-31T04:20:52.380Z,67.96
2017-05-31T04:21:18.558Z,68.15
2017-05-31T04:21:44.726Z,67.86
2017-05-31T04:22:10.900Z,67.67
2017-05-31T04:22:37.086Z,67.67
2017-05-31T04:23:03.254Z,67.67
2017-05-31T04:23:29.392Z,67.67
2017-05-31T04:23:55.582Z,67.96
2017-05-31T04:24:21.721Z,67.76
2017-05-31T04:24:47.886Z,67.76
2017-05-31T04:25:14.033Z,67.67
2017-05-31T04:25:40.176Z,67.67
2017-05-31T04:26:06.346Z,67.8
2017-05-31T04:26:32.528Z,67.96
2017-05-31T04:26:58.660Z,67.7
2017-05-31T04:27:24.813Z,67.51
2017-05-31T04:27:50.953Z,67.19
2017-05-31T04:28:17.088Z,67.61
2017-05-31T04:28:43.237Z,67.67
2017-05-31T04:29:09.417Z,67.86
2017-05-31T04:29:35.586Z,68.53
2017-05-31T04:30:01.732Z,67.9
2017-05-31T04:30:27.885Z,67.61
2017-05-31T04:30:54.049Z,67.7
2017-05-31T04:31:20.193Z,67.9
2017-05-31T04:31:46.379Z,67.9
2017-05-31T04:32:12.513Z,67.41
2017-05-31T04:32:38.651Z,67.9
2017-05-31T04:33:04.801Z,67.61
2017-05-31T04:33:30.940Z,67.67
2017-05-31T04:33:57.139Z,67.57
2017-05-31T04:34:23.293Z,67.67
2017-05-31T04:34:49.432Z,67.61
2017-05-31T04:35:15.565Z,67.47
2017-05-31T04:35:41.716Z,67.67
2017-05-31T04:36:07.862Z,67.7
2017-05-31T04:36:34.028Z,67.9
2017-05-31T04:37:00.175Z,67.8
2017-05-31T04:37:26.326Z,67.9
2017-05-31T04:37:52.500Z,67.8
2017-05-31T04:38:18.641Z,67.99
2017-05-31T04:38:44.772Z,67.7
2017-05-31T04:39:10.922Z,67.61
2017-05-31T04:39:37.070Z,67.7
2017-05-31T04:40:03.268Z,67.9
2017-05-31T04:40:29.446Z,67.99
2017-05-31T04:40:55.596Z,67.13
2017-05-31T04:41:21.729Z,67.51
2017-05-31T04:41:47.871Z,67.13
2017-05-31T04:42:14.021Z,67.41
2017-05-31T04:42:40.157Z,67.22
2017-05-31T04:43:06.295Z,67.13
2017-05-31T04:43:32.435Z,67.13
2017-05-31T04:43:58.580Z,67.16
2017-05-31T04:44:24.729Z,66.1
2017-05-31T04:44:50.891Z,65.17
2017-05-31T04:45:17.032Z,64.6
2017-05-31T04:45:43.183Z,64.25
2017-05-31T04:46:09.317Z,63.38
2017-05-31T04:46:35.459Z,62.54
2017-05-31T04:47:01.610Z,62.16
2017-05-31T04:47:27.782Z,60.91
2017-05-31T04:47:53.918Z,59.88
2017-05-31T04:48:20.073Z,59.59
2017-05-31T04:48:46.213Z,59.01
2017-05-31T04:49:12.361Z,58.56
2017-05-31T04:49:38.493Z,57.89
2017-05-31T04:50:04.632Z,57.53
2017-05-31T04:50:30.780Z,57.43
2017-05-31T04:50:56.918Z,57.27
2017-05-31T04:51:23.054Z,56.49
2017-05-31T04:51:49.209Z,56.21
2017-05-31T04:52:15.349Z,55.82
2017-05-31T04:52:41.480Z,56.01
2017-05-31T04:53:07.667Z,55.15
2017-05-31T04:53:33.838Z,55.05
2017-05-31T04:53:59.972Z,54.98
2017-05-31T04:54:26.120Z,54.88
2017-05-31T04:54:52.288Z,54.6
2017-05-31T04:55:18.442Z,54.02
2017-05-31T04:55:44.582Z,53.53
2017-05-31T04:56:10.752Z,53.17
2017-05-31T04:56:36.901Z,53.66
2017-05-31T04:57:03.084Z,53.95
2017-05-31T04:57:29.217Z,53.2
2017-05-31T04:57:55.400Z,53.11
2017-05-31T04:58:21.550Z,52.62
2017-05-31T04:58:47.679Z,53.01
2017-05-31T04:59:13.823Z,52.04
2017-05-31T04:59:39.972Z,52.43
2017-05-31T05:00:06.107Z,52.43
2017-05-31T05:00:32.299Z,52.23
2017-05-31T05:00:58.464Z,52.33
2017-05-31T05:01:24.610Z,52.33
2017-05-31T05:01:51.111Z,52.31
2017-05-31T05:02:17.274Z,53.27
2017-05-31T05:02:43.450Z,53.08
2017-05-31T05:03:09.600Z,53.08
2017-05-31T05:03:35.734Z,53.37
2017-05-31T05:04:01.940Z,53.08
2017-05-31T05:04:28.089Z,52.89
2017-05-31T05:04:54.227Z,53.17
2017-05-31T05:05:20.361Z,53.17
2017-05-31T05:05:46.508Z,53.08
2017-05-31T05:06:12.653Z,53.75
2017-05-31T05:06:38.803Z,53.27
2017-05-31T05:07:04.938Z,53.56
2017-05-31T05:07:31.080Z,53.63
2017-05-31T05:07:57.266Z,54.79
2017-05-31T05:08:23.404Z,54.5
2017-05-31T05:08:49.540Z,54.88
2017-05-31T05:09:15.695Z,54.98
2017-05-31T05:09:41.836Z,54.6
2017-05-31T05:10:07.969Z,55.27
2017-05-31T05:10:34.120Z,55.44
2017-05-31T05:11:00.263Z,55.44
2017-05-31T05:11:26.410Z,55.44
2017-05-31T05:11:52.581Z,55.73
2017-05-31T05:12:18.715Z,55.82
2017-05-31T05:12:44.870Z,55.89
2017-05-31T05:13:11.011Z,56.85
2017-05-31T05:13:37.148Z,56.85
2017-05-31T05:14:03.300Z,57.24
2017-05-31T05:14:29.479Z,57.43
2017-05-31T05:14:55.647Z,57.53
2017-05-31T05:15:21.804Z,58.08
2017-05-31T05:15:47.990Z,58.01
2017-05-31T05:16:14.153Z,57.6
2017-05-31T05:16:40.329Z,58.08
2017-05-31T05:17:06.515Z,58.56
2017-05-31T05:17:32.649Z,58.95
2017-05-31T05:17:58.787Z,58.56
2017-05-31T05:18:24.939Z,58.47
2017-05-31T05:18:51.112Z,59.04
2017-05-31T05:19:17.247Z,58.95
2017-05-31T05:19:43.437Z,59.49
2017-05-31T05:20:09.579Z,59.49
2017-05-31T05:20:35.714Z,59.49
2017-05-31T05:21:01.900Z,60.07
2017-05-31T05:21:28.080Z,60.65
2017-05-31T05:21:54.281Z,60.46
2017-05-31T05:22:20.462Z,60.46
2017-05-31T05:22:46.615Z,60.27
2017-05-31T05:23:12.770Z,60.75
2017-05-31T05:23:38.909Z,60.36
2017-05-31T05:24:05.043Z,60.27
2017-05-31T05:24:31.194Z,60.55
2017-05-31T05:24:57.340Z,61.39
2017-05-31T05:25:23.475Z,61.29
2017-05-31T05:25:49.621Z,61.39
2017-05-31T05:26:15.846Z,61
2017-05-31T05:26:42.011Z,61.58
2017-05-31T05:27:08.158Z,61.87
2017-05-31T05:27:34.345Z,62.54
2017-05-31T05:28:00.480Z,62.35
2017-05-31T05:28:26.626Z,62.26
2017-05-31T05:28:52.760Z,62.26
2017-05-31T05:29:18.909Z,62.54
2017-05-31T05:29:45.061Z,62.16
2017-05-31T05:30:11.256Z,62.54
2017-05-31T05:30:37.413Z,62.26
2017-05-31T05:31:03.565Z,62.35
2017-05-31T05:31:29.736Z,62.26
2017-05-31T05:31:55.875Z,62.26
2017-05-31T05:32:22.324Z,62.26
2017-05-31T05:32:48.496Z,62.16
2017-05-31T05:33:14.627Z,62.26
2017-05-31T05:33:40.777Z,62.35
2017-05-31T05:34:06.925Z,62.35
2017-05-31T05:34:33.073Z,62.26
2017-05-31T05:34:59.208Z,62.45
2017-05-31T05:35:25.352Z,62.16
2017-05-31T05:35:51.536Z,62.45
2017-05-31T05:36:17.674Z,62.19
2017-05-31T05:36:43.842Z,61.71
2017-05-31T05:37:10.031Z,61.61
2017-05-31T05:37:36.170Z,61.42
2017-05-31T05:38:02.305Z,61.52